Time;durP1;ratioP1;P1;durP2;ratioP2;P2;SDS_P1;SDS_P2;PMS_P1;PMS_P2;Temp;Humidity;BMP_temperature;BMP_pressure;BME280_temperature;BME280_humidity;BME280_pressure;Samples;Min_cycle;Max_cycle;Signal;HPM_P1;HPM_P2
2020/12/16 00:01:33;;;;;;;232.38;34.25;;;;;;;;;;5048660;28;20036;-44
2020/12/16 00:04:00;;;;;;;230.40;30.00;;;;;;;;;;5049221;28;20832;-43
2020/12/16 00:06:27;;;;;;;249.75;32.00;;;;;;;;;;5049740;28;20079;-43
2020/12/16 00:08:54;;;;;;;301.50;39.85;;;;;;;;;;5048362;28;20033;-46
2020/12/16 00:11:21;;;;;;;294.05;37.28;;;;;;;;;;5049649;28;20032;-44
2020/12/16 00:13:48;;;;;;;348.58;44.50;;;;;;;;;;5049566;28;20033;-44
2020/12/16 00:16:16;;;;;;;352.35;45.33;;;;;;;;;;5049455;28;20546;-42
2020/12/16 00:18:44;;;;;;;363.33;43.28;;;;;;;;;;5049378;28;20357;-44
2020/12/16 00:21:11;;;;;;;455.92;56.45;;;;;;;;;;5049340;28;20029;-43
2020/12/16 00:23:39;;;;;;;456.98;56.03;;;;;;;;;;5047539;28;21299;-43
2020/12/16 00:26:06;;;;;;;266.13;35.47;;;;;;;;;;5048254;28;20032;-44
2020/12/16 00:28:33;;;;;;;339.10;43.67;;;;;;;;;;5047305;28;20036;-43
2020/12/16 00:31:00;;;;;;;329.27;40.97;;;;;;;;;;5047660;28;20017;-44
2020/12/16 00:33:27;;;;;;;351.80;45.22;;;;;;;;;;5049114;28;20025;-43
2020/12/16 00:35:55;;;;;;;315.60;44.80;;;;;;;;;;5049330;28;20148;-44
2020/12/16 00:38:23;;;;;;;329.55;42.45;;;;;;;;;;5048094;28;20093;-43
2020/12/16 00:40:51;;;;;;;279.30;36.63;;;;;;;;;;5049186;28;20040;-44
2020/12/16 00:43:19;;;;;;;300.60;38.88;;;;;;;;;;5049259;28;20445;-45
2020/12/16 00:45:46;;;;;;;324.90;43.53;;;;;;;;;;5049061;28;20032;-44
2020/12/16 00:48:14;;;;;;;393.58;48.67;;;;;;;;;;5048981;28;20021;-43
2020/12/16 00:50:42;;;;;;;380.63;48.75;;;;;;;;;;5049331;28;20424;-44
2020/12/16 00:53:09;;;;;;;419.50;50.08;;;;;;;;;;5041836;28;20549;-45
2020/12/16 00:55:36;;;;;;;440.95;57.78;;;;;;;;;;5048931;28;20037;-43
2020/12/16 00:58:03;;;;;;;436.95;58.45;;;;;;;;;;5045995;28;20013;-44
2020/12/16 01:00:30;;;;;;;365.23;49.30;;;;;;;;;;5047152;28;20718;-45
2020/12/16 01:02:57;;;;;;;325.95;43.58;;;;;;;;;;5048680;28;20024;-44
2020/12/16 01:05:24;;;;;;;276.77;40.55;;;;;;;;;;5049035;28;20028;-45
2020/12/16 01:07:51;;;;;;;328.88;39.95;;;;;;;;;;5047738;28;20457;-44
2020/12/16 01:10:19;;;;;;;297.08;40.60;;;;;;;;;;5047240;28;20025;-44
2020/12/16 01:12:47;;;;;;;284.17;35.67;;;;;;;;;;5052196;28;20043;-45
2020/12/16 01:15:18;;;;;;;283.02;37.25;;;;;;;;;;5050776;28;20036;-46
2020/12/16 01:17:46;;;;;;;285.27;34.90;;;;;;;;;;5051867;28;20096;-43
2020/12/16 01:20:13;;;;;;;329.73;43.75;;;;;;;;;;5050805;28;20021;-45
2020/12/16 01:22:46;;;;;;;275.15;41.33;;;;;;;;;;5052831;28;20021;-44
2020/12/16 01:25:14;;;;;;;234.60;36.25;;;;;;;;;;5050557;28;20412;-43
2020/12/16 01:27:41;;;;;;;264.55;36.63;;;;;;;;;;5049317;28;20036;-44
2020/12/16 01:30:09;;;;;;;225.40;34.13;;;;;;;;;;5051546;28;20028;-43
2020/12/16 01:32:37;;;;;;;249.98;35.85;;;;;;;;;;5049617;28;20028;-47
2020/12/16 01:35:08;;;;;;;226.52;34.58;;;;;;;;;;5052510;28;20033;-45
2020/12/16 01:37:38;;;;;;;209.63;33.13;;;;;;;;;;5052097;28;20021;-48
2020/12/16 01:40:08;;;;;;;204.98;33.53;;;;;;;;;;5050876;28;20049;-45
2020/12/16 01:42:44;;;;;;;204.52;32.92;;;;;;;;;;5052285;28;20017;-45
2020/12/16 01:45:16;;;;;;;204.85;33.90;;;;;;;;;;5052149;28;20056;-48
2020/12/16 01:47:43;;;;;;;203.60;30.50;;;;;;;;;;5052025;28;20027;-46
2020/12/16 01:50:11;;;;;;;231.68;32.80;;;;;;;;;;5052016;28;20298;-46
2020/12/16 01:52:42;;;;;;;224.70;30.98;;;;;;;;;;5050110;28;20079;-47
2020/12/16 01:55:10;;;;;;;201.60;30.30;;;;;;;;;;5050776;28;20486;-45
2020/12/16 01:57:38;;;;;;;171.48;30.70;;;;;;;;;;5049105;28;20020;-45
2020/12/16 02:00:07;;;;;;;186.00;30.67;;;;;;;;;;5050368;28;20029;-48
2020/12/16 02:02:38;;;;;;;199.25;30.10;;;;;;;;;;5051307;28;20027;-46
2020/12/16 02:05:05;;;;;;;184.63;29.48;;;;;;;;;;5052248;28;20370;-44
2020/12/16 02:07:32;;;;;;;183.55;31.00;;;;;;;;;;5050942;28;20124;-45
2020/12/16 02:09:59;;;;;;;169.82;28.67;;;;;;;;;;5050297;28;20089;-45
2020/12/16 02:12:32;;;;;;;195.23;30.52;;;;;;;;;;5051893;28;20021;-45
2020/12/16 02:14:58;;;;;;;;;;;;;;;;;;5049419;28;20098;-45
2020/12/16 02:17:25;;;;;;;189.13;31.08;;;;;;;;;;5034033;28;20334;-45
2020/12/16 02:19:56;;;;;;;169.00;28.77;;;;;;;;;;5032963;28;20130;-45
2020/12/16 02:22:24;;;;;;;167.52;26.95;;;;;;;;;;5040035;28;20025;-45
2020/12/16 02:25:13;;;;;;;164.52;29.10;;;;;;;;;;5051268;28;20166;-44
2020/12/16 02:27:41;;;;;;;150.25;26.88;;;;;;;;;;5041487;28;20088;-45
2020/12/16 02:30:09;;;;;;;150.75;25.48;;;;;;;;;;5050740;28;20027;-47
2020/12/16 02:32:36;;;;;;;259.92;42.28;;;;;;;;;;5038348;28;20086;-46
2020/12/16 02:35:03;;;;;;;273.50;41.45;;;;;;;;;;5047393;28;20044;-49
2020/12/16 02:37:30;;;;;;;280.27;42.15;;;;;;;;;;5047844;28;20017;-46
2020/12/16 02:39:57;;;;;;;265.92;39.50;;;;;;;;;;5050868;28;20633;-45
2020/12/16 02:42:25;;;;;;;249.80;39.50;;;;;;;;;;5049789;28;20846;-46
2020/12/16 02:44:57;;;;;;;248.70;39.53;;;;;;;;;;5050181;28;20480;-43
2020/12/16 02:47:24;;;;;;;228.70;36.97;;;;;;;;;;5045773;28;20033;-46
2020/12/16 02:49:51;;;;;;;252.85;40.30;;;;;;;;;;5051068;28;20033;-43
2020/12/16 02:52:18;;;;;;;248.45;38.35;;;;;;;;;;5050049;28;20491;-43
2020/12/16 02:54:45;;;;;;;235.70;35.22;;;;;;;;;;5045404;28;20072;-44
2020/12/16 02:57:12;;;;;;;226.73;38.10;;;;;;;;;;5048600;28;20108;-44
2020/12/16 02:59:39;;;;;;;232.02;34.72;;;;;;;;;;5049329;28;20379;-44
2020/12/16 03:02:06;;;;;;;237.88;38.13;;;;;;;;;;5045151;28;20028;-44
2020/12/16 03:04:33;;;;;;;140.10;26.65;;;;;;;;;;5046495;28;20032;-44
2020/12/16 03:07:00;;;;;;;165.80;29.42;;;;;;;;;;5036189;28;20038;-45
2020/12/16 03:09:27;;;;;;;141.10;25.58;;;;;;;;;;5042239;28;20029;-46
2020/12/16 03:11:56;;;;;;;137.65;26.23;;;;;;;;;;5042357;28;20040;-45
2020/12/16 03:14:23;;;;;;;137.05;23.27;;;;;;;;;;5044213;28;20468;-45
2020/12/16 03:16:50;;;;;;;147.70;25.65;;;;;;;;;;5041676;28;20103;-47
2020/12/16 03:19:17;;;;;;;140.60;26.50;;;;;;;;;;5038718;28;20025;-46
2020/12/16 03:21:44;;;;;;;147.68;26.63;;;;;;;;;;5046455;28;20419;-46
2020/12/16 03:24:11;;;;;;;147.10;24.35;;;;;;;;;;5038868;28;20016;-46
2020/12/16 03:26:42;;;;;;;139.00;24.20;;;;;;;;;;5042108;28;20115;-48
2020/12/16 03:29:09;;;;;;;123.30;25.48;;;;;;;;;;5040701;28;20041;-50
2020/12/16 03:31:39;;;;;;;134.75;25.02;;;;;;;;;;5040241;28;20412;-48
2020/12/16 03:34:07;;;;;;;153.40;26.48;;;;;;;;;;5038793;28;20037;-46
2020/12/16 03:36:35;;;;;;;114.97;22.33;;;;;;;;;;5040020;28;20026;-45
2020/12/16 03:39:03;;;;;;;122.82;23.98;;;;;;;;;;5041319;28;20064;-47
2020/12/16 03:41:30;;;;;;;120.78;22.58;;;;;;;;;;5042209;28;20013;-45
2020/12/16 03:43:57;;;;;;;107.85;20.92;;;;;;;;;;5038514;28;20025;-45
2020/12/16 03:46:24;;;;;;;121.32;23.52;;;;;;;;;;5041173;28;20025;-48
2020/12/16 03:48:52;;;;;;;111.38;25.20;;;;;;;;;;5041864;28;20044;-46
2020/12/16 03:51:19;;;;;;;93.40;18.73;;;;;;;;;;5040611;28;20033;-46
2020/12/16 03:53:46;;;;;;;132.80;22.65;;;;;;;;;;5040114;28;20041;-46
2020/12/16 03:56:16;;;;;;;121.72;22.55;;;;;;;;;;5039699;28;20033;-48
2020/12/16 03:58:48;;;;;;;114.65;22.92;;;;;;;;;;5040231;28;20489;-49
2020/12/16 04:01:15;;;;;;;90.47;20.17;;;;;;;;;;5040203;28;20465;-45
2020/12/16 04:03:43;;;;;;;106.35;22.42;;;;;;;;;;5040652;28;20086;-49
2020/12/16 04:06:10;;;;;;;98.18;18.90;;;;;;;;;;5041442;28;20028;-46
2020/12/16 04:08:38;;;;;;;108.00;21.55;;;;;;;;;;5031777;28;20140;-48
2020/12/16 04:11:09;;;;;;;102.10;18.85;;;;;;;;;;5031649;28;20044;-51
2020/12/16 04:13:36;;;;;;;107.82;20.27;;;;;;;;;;5030759;28;20398;-50
2020/12/16 04:16:04;;;;;;;99.00;20.60;;;;;;;;;;5031612;28;20417;-47
2020/12/16 04:18:31;;;;;;;99.53;21.38;;;;;;;;;;5031616;28;20099;-46
2020/12/16 04:20:58;;;;;;;93.68;20.27;;;;;;;;;;5031554;28;20498;-50
2020/12/16 04:23:25;;;;;;;94.20;19.10;;;;;;;;;;5031463;28;20025;-47
2020/12/16 04:25:52;;;;;;;98.43;17.33;;;;;;;;;;5041326;28;20112;-49
2020/12/16 04:28:19;;;;;;;84.75;16.65;;;;;;;;;;5051142;28;20453;-48
2020/12/16 04:30:46;;;;;;;92.15;19.90;;;;;;;;;;5050960;28;20266;-50
2020/12/16 04:33:13;;;;;;;91.93;18.85;;;;;;;;;;5051558;28;20373;-48
2020/12/16 04:35:40;;;;;;;87.95;18.73;;;;;;;;;;5051064;28;20504;-48
2020/12/16 04:38:07;;;;;;;84.00;18.67;;;;;;;;;;5050313;28;20033;-46
2020/12/16 04:40:34;;;;;;;80.28;17.10;;;;;;;;;;5051329;28;20408;-46
2020/12/16 04:43:09;;;;;;;85.07;18.88;;;;;;;;;;5050748;28;20025;-50
2020/12/16 04:45:39;;;;;;;85.95;18.33;;;;;;;;;;5051752;28;20020;-45
2020/12/16 04:48:10;;;;;;;80.82;17.73;;;;;;;;;;5055311;28;20031;-47
2020/12/16 04:50:38;;;;;;;74.90;18.15;;;;;;;;;;5055165;28;20029;-48
2020/12/16 04:53:09;;;;;;;78.18;15.65;;;;;;;;;;5055046;28;20028;-49
2020/12/16 04:55:36;;;;;;;70.25;16.38;;;;;;;;;;5054420;28;20041;-48
2020/12/16 04:58:04;;;;;;;73.07;15.80;;;;;;;;;;5055096;28;20025;-46
2020/12/16 05:00:32;;;;;;;87.63;16.13;;;;;;;;;;5054933;28;20021;-47
2020/12/16 05:03:00;;;;;;;83.47;17.70;;;;;;;;;;5054910;28;20028;-49
2020/12/16 05:05:27;;;;;;;68.85;15.95;;;;;;;;;;5055140;28;20040;-46
2020/12/16 05:07:54;;;;;;;71.20;16.33;;;;;;;;;;5049621;28;20032;-49
2020/12/16 05:10:31;;;;;;;76.00;14.45;;;;;;;;;;5034758;28;20026;-46
2020/12/16 05:13:07;;;;;;;66.30;15.80;;;;;;;;;;5048378;28;20091;-47
2020/12/16 05:15:35;;;;;;;63.85;14.55;;;;;;;;;;5050947;28;20048;-51
2020/12/16 05:18:20;;;;;;;71.55;14.80;;;;;;;;;;5034839;28;20020;-48
2020/12/16 05:20:57;;;;;;;60.58;13.52;;;;;;;;;;5043748;28;20108;-46
2020/12/16 05:23:26;;;;;;;69.63;13.90;;;;;;;;;;5054252;28;20373;-47
2020/12/16 05:26:06;;;;;;;70.72;15.13;;;;;;;;;;5054857;28;20021;-51
2020/12/16 05:28:37;;;;;;;59.60;14.95;;;;;;;;;;5054652;28;20052;-47
2020/12/16 05:31:05;;;;;;;59.67;13.45;;;;;;;;;;5053215;28;20053;-47
2020/12/16 05:33:32;;;;;;;66.18;14.75;;;;;;;;;;5054321;28;20027;-48
2020/12/16 05:35:59;;;;;;;56.47;13.40;;;;;;;;;;5054529;28;20025;-46
2020/12/16 05:38:26;;;;;;;66.63;13.38;;;;;;;;;;5054718;28;20114;-50
2020/12/16 05:40:53;;;;;;;71.82;13.70;;;;;;;;;;5053908;28;20079;-49
2020/12/16 05:43:24;;;;;;;61.47;13.63;;;;;;;;;;5054445;28;20021;-50
2020/12/16 05:45:51;;;;;;;64.90;12.15;;;;;;;;;;5054414;28;20032;-49
2020/12/16 05:48:18;;;;;;;54.55;12.85;;;;;;;;;;5054089;28;20033;-48
2020/12/16 05:50:45;;;;;;;57.65;13.30;;;;;;;;;;5035652;28;20527;-49
2020/12/16 05:53:14;;;;;;;65.30;13.75;;;;;;;;;;5034109;28;20020;-46
2020/12/16 05:55:41;;;;;;;54.50;12.80;;;;;;;;;;5033916;28;20037;-45
2020/12/16 05:58:10;;;;;;;53.90;13.55;;;;;;;;;;5033798;28;20120;-45
2020/12/16 06:01:06;;;;;;;64.72;14.70;;;;;;;;;;5044072;28;20484;-45
2020/12/16 06:03:37;;;;;;;42.88;12.43;;;;;;;;;;5049111;28;20033;-45
2020/12/16 06:06:07;;;;;;;52.80;12.82;;;;;;;;;;5052535;28;20130;-46
2020/12/16 06:08:35;;;;;;;60.17;12.70;;;;;;;;;;5052447;28;20423;-46
2020/12/16 06:11:03;;;;;;;47.50;12.45;;;;;;;;;;5053598;28;20103;-46
2020/12/16 06:13:30;;;;;;;38.10;10.23;;;;;;;;;;5053661;28;20112;-46
2020/12/16 06:16:01;;;;;;;44.63;10.93;;;;;;;;;;5053087;28;20434;-46
2020/12/16 06:18:39;;;;;;;42.55;10.90;;;;;;;;;;5053290;28;20033;-46
2020/12/16 06:21:11;;;;;;;55.47;12.48;;;;;;;;;;5053422;28;20028;-46
2020/12/16 06:23:46;;;;;;;43.58;10.55;;;;;;;;;;5053075;28;20025;-46
2020/12/16 06:26:19;;;;;;;58.92;10.70;;;;;;;;;;5053662;28;20532;-46
2020/12/16 06:28:46;;;;;;;48.47;12.25;;;;;;;;;;5053279;28;20040;-47
2020/12/16 06:31:33;;;;;;;46.80;11.40;;;;;;;;;;5052586;28;20029;-46
2020/12/16 06:34:01;;;;;;;45.03;10.50;;;;;;;;;;5053190;28;20480;-46
2020/12/16 06:36:35;;;;;;;53.00;11.80;;;;;;;;;;5052885;28;20108;-46
2020/12/16 06:39:02;;;;;;;43.83;10.77;;;;;;;;;;5053144;28;20095;-46
2020/12/16 06:41:29;;;;;;;41.15;9.55;;;;;;;;;;5053211;28;20017;-45
2020/12/16 06:43:57;;;;;;;43.80;9.63;;;;;;;;;;5052313;28;20041;-46
2020/12/16 06:46:30;;;;;;;37.17;9.60;;;;;;;;;;5053409;28;20128;-47
2020/12/16 06:48:58;;;;;;;40.58;10.35;;;;;;;;;;5052604;28;20479;-46
2020/12/16 06:51:27;;;;;;;50.55;9.05;;;;;;;;;;5052746;28;20025;-45
2020/12/16 06:54:07;;;;;;;42.08;8.75;;;;;;;;;;5052449;28;20476;-46
2020/12/16 06:56:34;;;;;;;37.70;10.27;;;;;;;;;;5052846;28;20028;-46
2020/12/16 06:59:01;;;;;;;39.50;10.75;;;;;;;;;;5052756;28;20041;-45
2020/12/16 07:01:28;;;;;;;41.40;10.02;;;;;;;;;;5052510;28;20033;-46
2020/12/16 07:03:55;;;;;;;38.00;8.40;;;;;;;;;;5052695;28;20025;-46
2020/12/16 07:06:28;;;;;;;39.58;10.18;;;;;;;;;;5052454;28;20410;-45
2020/12/16 07:09:21;;;;;;;36.72;9.20;;;;;;;;;;5051720;28;20052;-46
2020/12/16 07:11:53;;;;;;;40.65;9.68;;;;;;;;;;5050474;28;20418;-46
2020/12/16 07:14:20;;;;;;;33.93;7.93;;;;;;;;;;5052324;28;20079;-46
2020/12/16 07:16:48;;;;;;;29.75;8.80;;;;;;;;;;5051911;28;20484;-45
2020/12/16 07:19:35;;;;;;;41.13;9.23;;;;;;;;;;5052043;28;20067;-45
2020/12/16 07:22:18;;;;;;;37.45;8.38;;;;;;;;;;5052262;28;20082;-45
2020/12/16 07:24:52;;;;;;;28.88;8.27;;;;;;;;;;5051135;28;20033;-45
2020/12/16 07:27:22;;;;;;;36.30;9.23;;;;;;;;;;5052511;28;20021;-45
2020/12/16 07:29:56;;;;;;;35.15;8.45;;;;;;;;;;5052285;28;20381;-46
2020/12/16 07:32:23;;;;;;;34.60;7.82;;;;;;;;;;5052120;28;20025;-45
2020/12/16 07:34:55;;;;;;;37.72;9.48;;;;;;;;;;5052074;28;20025;-46
2020/12/16 07:37:24;;;;;;;30.92;7.20;;;;;;;;;;5051136;28;20548;-47
2020/12/16 07:39:58;;;;;;;31.73;8.30;;;;;;;;;;5051983;28;20049;-45
2020/12/16 07:42:24;;;;;;;25.05;6.47;;;;;;;;;;5052261;28;20063;-46
2020/12/16 07:44:52;;;;;;;38.15;7.82;;;;;;;;;;5052201;28;20025;-47
2020/12/16 07:47:19;;;;;;;29.58;6.82;;;;;;;;;;5051685;28;20086;-46
2020/12/16 07:49:47;;;;;;;29.75;7.18;;;;;;;;;;5051626;28;20377;-47
2020/12/16 07:52:14;;;;;;;28.77;7.28;;;;;;;;;;5232445;22;20064;-47
2020/12/16 07:54:41;;;;;;;22.15;7.00;;;;;;;;;;5051551;28;20037;-47
2020/12/16 07:57:08;;;;;;;33.17;7.18;;;;;;;;;;5051467;28;20043;-48
2020/12/16 07:59:36;;;;;;;30.95;7.45;;;;;;;;;;5051483;28;20051;-46
2020/12/16 08:02:13;;;;;;;29.02;6.78;;;;;;;;;;5051034;28;20032;-46
2020/12/16 08:04:42;;;;;;;31.98;8.20;;;;;;;;;;5051391;28;20025;-46
2020/12/16 08:07:22;;;;;;;26.90;7.80;;;;;;;;;;5051703;28;20017;-46
2020/12/16 08:09:56;;;;;;;25.70;7.68;;;;;;;;;;5051062;28;20032;-46
2020/12/16 08:12:24;;;;;;;30.27;7.75;;;;;;;;;;5051226;28;20104;-46
2020/12/16 08:15:03;;;;;;;24.48;6.80;;;;;;;;;;5051133;28;20492;-46
2020/12/16 08:17:30;;;;;;;24.65;7.05;;;;;;;;;;5050751;28;20029;-47
2020/12/16 08:20:15;;;;;;;28.15;7.68;;;;;;;;;;5050998;28;20049;-45
2020/12/16 08:22:46;;;;;;;28.40;7.60;;;;;;;;;;5050577;28;20045;-49
2020/12/16 08:25:14;;;;;;;26.88;6.60;;;;;;;;;;5051236;28;20040;-49
2020/12/16 08:27:45;;;;;;;22.67;6.72;;;;;;;;;;5051107;28;20028;-49
2020/12/16 08:30:13;;;;;;;21.98;5.68;;;;;;;;;;5050782;28;20021;-50
2020/12/16 08:32:46;;;;;;;24.55;6.88;;;;;;;;;;5051065;28;20484;-49
2020/12/16 08:35:18;;;;;;;20.05;6.50;;;;;;;;;;5049387;28;20040;-47
2020/12/16 08:37:49;;;;;;;24.40;6.28;;;;;;;;;;5048611;28;20034;-44
2020/12/16 08:40:17;;;;;;;19.08;5.07;;;;;;;;;;5049234;28;20544;-47
2020/12/16 08:42:44;;;;;;;21.38;6.82;;;;;;;;;;5049024;28;20119;-50
2020/12/16 08:45:11;;;;;;;23.60;5.60;;;;;;;;;;5048397;28;20621;-48
2020/12/16 08:47:39;;;;;;;23.10;6.13;;;;;;;;;;5050948;28;20108;-47
2020/12/16 08:50:13;;;;;;;20.52;6.32;;;;;;;;;;5051040;28;20503;-46
2020/12/16 08:52:42;;;;;;;19.13;6.03;;;;;;;;;;5050803;28;20450;-48
2020/12/16 08:55:16;;;;;;;27.35;6.15;;;;;;;;;;5050816;28;20036;-48
2020/12/16 08:57:53;;;;;;;18.42;4.53;;;;;;;;;;5049333;28;20033;-48
2020/12/16 09:00:25;;;;;;;20.92;5.53;;;;;;;;;;5049064;28;20079;-47
2020/12/16 09:02:51;;;;;;;;;;;;;;;;;;5050324;28;20032;-48
2020/12/16 09:05:23;;;;;;;14.30;4.55;;;;;;;;;;5049616;28;20264;-47
2020/12/16 09:07:51;;;;;;;16.20;4.68;;;;;;;;;;5048909;28;20549;-48
2020/12/16 09:10:18;;;;;;;18.85;4.55;;;;;;;;;;5050162;28;20369;-47
2020/12/16 09:12:45;;;;;;;17.48;4.68;;;;;;;;;;5049642;28;20047;-48
2020/12/16 09:15:16;;;;;;;19.23;4.57;;;;;;;;;;5050679;28;20033;-49
2020/12/16 09:17:44;;;;;;;20.13;4.78;;;;;;;;;;5050526;28;20025;-47
2020/12/16 09:20:14;;;;;;;17.15;4.00;;;;;;;;;;5050469;28;20430;-48
2020/12/16 09:22:41;;;;;;;14.40;4.43;;;;;;;;;;5050385;28;20487;-48
2020/12/16 09:25:15;;;;;;;15.20;3.55;;;;;;;;;;5050723;28;20392;-47
2020/12/16 09:27:55;;;;;;;16.85;4.47;;;;;;;;;;5050659;28;20051;-47
2020/12/16 09:30:35;;;;;;;19.63;4.22;;;;;;;;;;5050276;28;20029;-50
2020/12/16 09:33:12;;;;;;;14.70;4.15;;;;;;;;;;5052769;28;20033;-47
2020/12/16 09:35:39;;;;;;;16.58;5.25;;;;;;;;;;5054003;28;20480;-47
2020/12/16 09:38:19;;;;;;;16.05;4.43;;;;;;;;;;5053537;28;20056;-49
2020/12/16 09:40:57;;;;;;;11.80;3.85;;;;;;;;;;5054041;28;20108;-47
2020/12/16 09:43:44;;;;;;;15.35;5.10;;;;;;;;;;5053489;28;20479;-49
2020/12/16 09:46:18;;;;;;;12.98;3.83;;;;;;;;;;5054311;28;20094;-48
2020/12/16 09:48:46;;;;;;;17.80;4.93;;;;;;;;;;5052551;28;20697;-47
2020/12/16 09:51:16;;;;;;;17.00;4.97;;;;;;;;;;5052118;28;20021;-46
2020/12/16 09:53:44;;;;;;;20.38;4.65;;;;;;;;;;5051656;28;20056;-47
2020/12/16 09:56:23;;;;;;;14.88;4.07;;;;;;;;;;5052306;28;20456;-47
2020/12/16 09:58:50;;;;;;;12.82;3.58;;;;;;;;;;5050458;28;20124;-48
2020/12/16 10:01:18;;;;;;;14.30;4.13;;;;;;;;;;5051851;28;20372;-49
2020/12/16 10:03:45;;;;;;;15.43;4.15;;;;;;;;;;5053112;28;20087;-51
2020/12/16 10:06:13;;;;;;;13.18;4.10;;;;;;;;;;5053535;28;20025;-48
2020/12/16 10:08:40;;;;;;;12.70;3.50;;;;;;;;;;5053165;28;20047;-46
2020/12/16 10:11:16;;;;;;;12.23;3.50;;;;;;;;;;5051909;28;20056;-47
2020/12/16 10:13:44;;;;;;;16.23;4.00;;;;;;;;;;5053369;28;20029;-46
2020/12/16 10:16:12;;;;;;;16.48;3.20;;;;;;;;;;5053779;28;20025;-47
2020/12/16 10:18:39;;;;;;;15.30;4.68;;;;;;;;;;5053128;28;20100;-49
2020/12/16 10:21:06;;;;;;;14.77;3.67;;;;;;;;;;5053516;28;20032;-47
2020/12/16 10:23:33;;;;;;;18.50;3.75;;;;;;;;;;5053467;28;20484;-46
2020/12/16 10:26:00;;;;;;;9.73;3.17;;;;;;;;;;5053274;28;20014;-47
2020/12/16 10:28:27;;;;;;;11.18;3.70;;;;;;;;;;5052869;28;20017;-48
2020/12/16 10:30:54;;;;;;;16.58;3.40;;;;;;;;;;5053470;28;20024;-49
2020/12/16 10:33:21;;;;;;;12.52;3.53;;;;;;;;;;5053136;28;20021;-47
2020/12/16 10:35:48;;;;;;;12.20;3.67;;;;;;;;;;5053009;28;20040;-47
2020/12/16 10:38:15;;;;;;;10.65;3.35;;;;;;;;;;5053321;28;20049;-47
2020/12/16 10:40:42;;;;;;;11.45;3.35;;;;;;;;;;5052488;28;20071;-48
2020/12/16 10:43:09;;;;;;;12.85;3.40;;;;;;;;;;5052091;28;20041;-51
2020/12/16 10:45:37;;;;;;;14.50;3.35;;;;;;;;;;5052741;28;20025;-46
2020/12/16 10:48:05;;;;;;;17.55;3.88;;;;;;;;;;5052403;28;20021;-47
2020/12/16 10:50:32;;;;;;;11.68;3.22;;;;;;;;;;5052494;28;20436;-47
2020/12/16 10:53:00;;;;;;;14.10;3.30;;;;;;;;;;5066602;28;20123;-45
2020/12/16 10:55:27;;;;;;;30.15;4.57;;;;;;;;;;5071896;28;20036;-46
2020/12/16 10:57:54;;;;;;;19.95;3.38;;;;;;;;;;5065935;28;20060;-46
2020/12/16 11:00:21;;;;;;;38.30;4.82;;;;;;;;;;5051254;28;20025;-50
2020/12/16 11:02:51;;;;;;;52.97;5.75;;;;;;;;;;5070834;28;20105;-47
2020/12/16 11:05:18;;;;;;;56.72;6.20;;;;;;;;;;5068351;28;20488;-48
2020/12/16 11:07:45;;;;;;;64.40;6.25;;;;;;;;;;5077550;28;20111;-48
2020/12/16 11:10:12;;;;;;;59.63;6.65;;;;;;;;;;5064359;28;20033;-47
2020/12/16 11:12:39;;;;;;;64.70;6.30;;;;;;;;;;5057269;28;20031;-46
2020/12/16 11:15:06;;;;;;;60.05;5.90;;;;;;;;;;5072027;28;20032;-45
2020/12/16 11:17:33;;;;;;;36.95;4.72;;;;;;;;;;5063673;28;20017;-46
2020/12/16 11:20:00;;;;;;;67.97;5.63;;;;;;;;;;5063168;28;20032;-46
2020/12/16 11:22:27;;;;;;;53.28;4.88;;;;;;;;;;5067259;28;20036;-47
2020/12/16 11:24:56;;;;;;;61.03;6.35;;;;;;;;;;5070912;28;20054;-47
2020/12/16 11:27:23;;;;;;;64.95;7.03;;;;;;;;;;5070927;28;20444;-48
2020/12/16 11:29:50;;;;;;;69.53;6.70;;;;;;;;;;5070067;28;20021;-46
2020/12/16 11:32:17;;;;;;;72.13;8.38;;;;;;;;;;5071881;28;20017;-46
2020/12/16 11:34:44;;;;;;;77.57;7.82;;;;;;;;;;5070572;28;20045;-52
2020/12/16 11:37:12;;;;;;;81.55;8.50;;;;;;;;;;5070597;28;20031;-50
2020/12/16 11:39:39;;;;;;;73.32;6.93;;;;;;;;;;5070576;28;20482;-52
2020/12/16 11:42:07;;;;;;;71.55;6.70;;;;;;;;;;5070428;28;20013;-52
2020/12/16 11:44:34;;;;;;;57.65;6.20;;;;;;;;;;5069956;28;20036;-52
2020/12/16 11:47:03;;;;;;;50.35;5.30;;;;;;;;;;5059748;28;20387;-48
2020/12/16 11:49:30;;;;;;;50.50;5.15;;;;;;;;;;5051168;28;20110;-49
2020/12/16 11:51:58;;;;;;;60.67;6.32;;;;;;;;;;5051267;28;20631;-47
2020/12/16 11:54:25;;;;;;;51.40;6.82;;;;;;;;;;5050772;28;20121;-50
2020/12/16 11:56:53;;;;;;;66.55;6.90;;;;;;;;;;5051387;28;20079;-51
2020/12/16 11:59:20;;;;;;;67.90;6.55;;;;;;;;;;5050131;28;20115;-50
2020/12/16 12:01:47;;;;;;;47.88;5.80;;;;;;;;;;5032944;28;20112;-53
2020/12/16 12:04:14;;;;;;;50.95;5.68;;;;;;;;;;5051183;28;20039;-52
2020/12/16 12:06:43;;;;;;;36.08;4.30;;;;;;;;;;5047164;28;20009;-50
2020/12/16 12:09:11;;;;;;;42.97;5.18;;;;;;;;;;5068525;28;20032;-55
2020/12/16 12:11:38;;;;;;;75.35;6.03;;;;;;;;;;5054126;28;20023;-48
2020/12/16 12:14:05;;;;;;;43.42;4.72;;;;;;;;;;5050954;28;20033;-51
2020/12/16 12:16:32;;;;;;;47.90;4.82;;;;;;;;;;5049364;28;20029;-48
2020/12/16 12:18:59;;;;;;;38.35;4.00;;;;;;;;;;5060528;28;20048;-48
2020/12/16 12:21:26;;;;;;;37.88;4.60;;;;;;;;;;5067070;28;20114;-48
2020/12/16 12:23:54;;;;;;;45.13;4.63;;;;;;;;;;5062015;28;20028;-54
2020/12/16 12:26:21;;;;;;;29.88;3.38;;;;;;;;;;5059428;28;20021;-50
2020/12/16 12:28:48;;;;;;;36.17;3.97;;;;;;;;;;5050435;28;20024;-51
2020/12/16 12:31:15;;;;;;;68.68;6.18;;;;;;;;;;5052899;28;20025;-52
2020/12/16 12:33:42;;;;;;;53.83;5.57;;;;;;;;;;5050890;28;20515;-48
2020/12/16 12:36:09;;;;;;;59.95;5.30;;;;;;;;;;5050637;28;20037;-53
2020/12/16 12:38:36;;;;;;;45.42;5.78;;;;;;;;;;5054519;28;20112;-50
2020/12/16 12:41:03;;;;;;;56.30;5.43;;;;;;;;;;5050519;28;20025;-51
2020/12/16 12:43:30;;;;;;;50.88;4.75;;;;;;;;;;5058776;28;20024;-56
2020/12/16 12:45:57;;;;;;;51.95;4.72;;;;;;;;;;5057836;28;20017;-50
2020/12/16 12:48:24;;;;;;;40.88;5.15;;;;;;;;;;5052226;28;20039;-48
2020/12/16 12:50:51;;;;;;;40.92;4.78;;;;;;;;;;5047809;28;20388;-46
2020/12/16 12:53:18;;;;;;;46.22;5.60;;;;;;;;;;5054367;28;20072;-49
2020/12/16 12:55:45;;;;;;;34.60;4.35;;;;;;;;;;5070209;28;20131;-51
2020/12/16 12:58:12;;;;;;;43.22;5.20;;;;;;;;;;5048649;28;20025;-53
2020/12/16 13:00:39;;;;;;;48.83;5.05;;;;;;;;;;5063534;28;20077;-48
2020/12/16 13:03:06;;;;;;;41.83;4.90;;;;;;;;;;5051283;28;20119;-50
2020/12/16 13:05:34;;;;;;;46.05;5.03;;;;;;;;;;5039817;28;20024;-47
2020/12/16 13:08:01;;;;;;;43.42;5.22;;;;;;;;;;5052120;28;20036;-46
2020/12/16 13:10:28;;;;;;;42.08;4.75;;;;;;;;;;5053433;28;20380;-48
2020/12/16 13:12:55;;;;;;;35.67;5.18;;;;;;;;;;5053540;28;20375;-49
2020/12/16 13:15:22;;;;;;;38.20;4.97;;;;;;;;;;5053539;28;20044;-50
2020/12/16 13:17:49;;;;;;;37.58;4.45;;;;;;;;;;5053900;28;20021;-49
2020/12/16 13:20:16;;;;;;;37.20;4.47;;;;;;;;;;5053311;28;20025;-49
2020/12/16 13:22:43;;;;;;;35.53;5.07;;;;;;;;;;5056397;28;20099;-47
2020/12/16 13:25:10;;;;;;;38.78;5.25;;;;;;;;;;5056219;28;20055;-48
2020/12/16 13:27:37;;;;;;;44.72;4.82;;;;;;;;;;5054902;28;20472;-49
2020/12/16 13:30:05;;;;;;;32.15;4.25;;;;;;;;;;5055089;28;20665;-47
2020/12/16 13:32:32;;;;;;;36.78;4.82;;;;;;;;;;5050371;28;20029;-43
2020/12/16 13:34:59;;;;;;;36.92;4.53;;;;;;;;;;5071929;28;20070;-51
2020/12/16 13:37:26;;;;;;;46.92;4.75;;;;;;;;;;5054108;28;20454;-48
2020/12/16 13:39:53;;;;;;;32.97;4.45;;;;;;;;;;5053849;28;20055;-46
2020/12/16 13:42:20;;;;;;;30.95;4.32;;;;;;;;;;5064480;28;20465;-49
2020/12/16 13:44:47;;;;;;;34.42;4.43;;;;;;;;;;5063257;28;20020;-45
2020/12/16 13:47:15;;;;;;;37.40;3.72;;;;;;;;;;5057658;28;20087;-46
2020/12/16 13:49:45;;;;;;;36.33;5.00;;;;;;;;;;5062531;28;20020;-47
2020/12/16 13:52:15;;;;;;;29.13;4.20;;;;;;;;;;5068164;28;20371;-48
2020/12/16 13:54:43;;;;;;;31.60;4.07;;;;;;;;;;5063001;28;20102;-46
2020/12/16 13:57:11;;;;;;;35.05;4.03;;;;;;;;;;5058328;28;20013;-47
2020/12/16 13:59:39;;;;;;;30.65;4.63;;;;;;;;;;5051306;28;20064;-48
2020/12/16 14:02:06;;;;;;;35.30;4.63;;;;;;;;;;5067398;28;20017;-47
2020/12/16 14:04:34;;;;;;;40.53;4.63;;;;;;;;;;5070859;28;20031;-51
2020/12/16 14:07:01;;;;;;;42.95;4.45;;;;;;;;;;5060644;28;20024;-47
2020/12/16 14:09:28;;;;;;;40.10;4.07;;;;;;;;;;5063572;28;20017;-49
2020/12/16 14:11:55;;;;;;;34.38;5.28;;;;;;;;;;5063628;28;20035;-45
2020/12/16 14:14:23;;;;;;;33.42;4.35;;;;;;;;;;5054784;28;20032;-48
2020/12/16 14:16:52;;;;;;;32.38;3.90;;;;;;;;;;5062976;28;20029;-46
2020/12/16 14:19:19;;;;;;;29.23;3.53;;;;;;;;;;5061444;28;20053;-46
2020/12/16 14:21:46;;;;;;;29.23;3.55;;;;;;;;;;5060945;28;20025;-47
2020/12/16 14:24:13;;;;;;;27.08;3.40;;;;;;;;;;5068557;28;20029;-45
2020/12/16 14:26:40;;;;;;;27.45;3.40;;;;;;;;;;5066970;28;20021;-49
2020/12/16 14:29:07;;;;;;;23.58;3.03;;;;;;;;;;5060961;28;20021;-53
2020/12/16 14:31:34;;;;;;;22.70;2.65;;;;;;;;;;5060259;28;20021;-51